Time;durP1;ratioP1;P1;durP2;ratioP2;P2;SDS_P1;SDS_P2;PMS_P1;PMS_P2;Temp;Humidity;BMP_temperature;BMP_pressure;BME280_temperature;BME280_humidity;BME280_pressure;Samples;Min_cycle;Max_cycle;Signal;HPM_P1;HPM_P2
2022/08/04 00:01:10;;;;;;;4.38;1.70;;;;;;;;;;8409441;28;20051;-71
2022/08/04 00:05:22;;;;;;;1.75;1.40;;;;;;;;;;8408263;28;20027;-71
2022/08/04 00:09:22;;;;;;;4.63;1.40;;;;;;;;;;8411640;28;20471;-71
2022/08/04 00:13:24;;;;;;;2.03;1.33;;;;;;;;;;8411571;28;20127;-71
2022/08/04 00:17:27;;;;;;;2.03;1.50;;;;;;;;;;8410218;28;21943;-71
2022/08/04 00:21:28;;;;;;;1.40;1.30;;;;;;;;;;8409479;28;20420;-71
2022/08/04 00:25:28;;;;;;;1.50;1.40;;;;;;;;;;8411370;28;20026;-70
2022/08/04 00:29:29;;;;;;;2.00;1.38;;;;;;;;;;8410782;28;20034;-70
2022/08/04 00:33:30;;;;;;;1.48;1.38;;;;;;;;;;8409120;28;20039;-71
2022/08/04 00:37:31;;;;;;;4.32;1.60;;;;;;;;;;8413165;28;20373;-71
2022/08/04 00:41:43;;;;;;;1.30;1.20;;;;;;;;;;8381762;28;20031;-71
2022/08/04 00:45:51;;;;;;;1.45;1.35;;;;;;;;;;8408633;28;20520;-71
2022/08/04 00:49:54;;;;;;;1.60;1.40;;;;;;;;;;8411708;28;20512;-71
2022/08/04 00:54:03;;;;;;;1.60;1.50;;;;;;;;;;8411020;28;20420;-71
2022/08/04 00:58:10;;;;;;;1.60;1.50;;;;;;;;;;8409163;28;20023;-72
2022/08/04 01:02:20;;;;;;;2.28;1.48;;;;;;;;;;8407254;28;20323;-71
2022/08/04 01:06:25;;;;;;;1.95;1.70;;;;;;;;;;8406447;28;20027;-71
2022/08/04 01:10:26;;;;;;;3.03;1.70;;;;;;;;;;8406371;28;20464;-71
2022/08/04 01:14:34;;;;;;;1.60;1.50;;;;;;;;;;8406602;28;20031;-72
2022/08/04 01:18:43;;;;;;;2.97;1.60;;;;;;;;;;8403431;28;20127;-71
2022/08/04 01:22:46;;;;;;;2.58;1.60;;;;;;;;;;8410099;28;20062;-71
2022/08/04 01:27:05;;;;;;;1.80;1.63;;;;;;;;;;8415260;28;20020;-71
2022/08/04 01:31:10;;;;;;;1.60;1.50;;;;;;;;;;8410990;28;20038;-71
2022/08/04 01:35:19;;;;;;;2.00;1.30;;;;;;;;;;8413850;28;20841;-71
2022/08/04 01:43:42;;;;;;;2.25;1.63;;;;;;;;;;8416454;28;20034;-71
2022/08/04 01:47:48;;;;;;;2.67;1.67;;;;;;;;;;8416733;28;20093;-71
2022/08/04 01:51:49;;;;;;;2.38;1.80;;;;;;;;;;8415278;28;20027;-71
2022/08/04 01:55:51;;;;;;;2.28;1.70;;;;;;;;;;8418348;27;20025;-71
2022/08/04 01:59:52;;;;;;;1.50;1.40;;;;;;;;;;8415780;28;20150;-72
2022/08/04 02:03:52;;;;;;;3.50;1.92;;;;;;;;;;8414452;28;20339;-72
2022/08/04 02:07:59;;;;;;;2.40;1.60;;;;;;;;;;8418014;28;20751;-72
2022/08/04 02:12:17;;;;;;;1.60;1.50;;;;;;;;;;8414910;28;20027;-72
2022/08/04 02:16:27;;;;;;;3.55;1.50;;;;;;;;;;8416618;27;20105;-72
2022/08/04 02:20:33;;;;;;;2.63;1.80;;;;;;;;;;8412362;27;20165;-72
2022/08/04 02:24:36;;;;;;;1.50;1.40;;;;;;;;;;8416477;28;20029;-72
2022/08/04 02:28:38;;;;;;;1.67;1.58;;;;;;;;;;8414695;28;20020;-72
2022/08/04 02:32:40;;;;;;;2.60;1.60;;;;;;;;;;8413123;27;20536;-72
2022/08/04 02:36:41;;;;;;;1.60;1.50;;;;;;;;;;8415049;28;20042;-71
2022/08/04 02:40:41;;;;;;;4.15;1.80;;;;;;;;;;8415781;28;20456;-72
2022/08/04 02:44:42;;;;;;;1.73;1.63;;;;;;;;;;8413285;27;20083;-72
2022/08/04 02:48:44;;;;;;;3.40;1.90;;;;;;;;;;8414081;27;20277;-72
2022/08/04 02:52:45;;;;;;;1.75;1.60;;;;;;;;;;8412872;28;20030;-72
2022/08/04 02:56:49;;;;;;;2.95;1.90;;;;;;;;;;8413707;28;20134;-72
2022/08/04 03:00:50;;;;;;;1.77;1.67;;;;;;;;;;8414925;28;20392;-72
2022/08/04 03:04:59;;;;;;;1.60;1.50;;;;;;;;;;8414104;28;20090;-72
2022/08/04 03:09:02;;;;;;;2.13;1.65;;;;;;;;;;8413669;28;20012;-72
2022/08/04 03:13:14;;;;;;;2.75;1.60;;;;;;;;;;8411536;28;20428;-71
2022/08/04 03:17:17;;;;;;;1.70;1.60;;;;;;;;;;8412114;28;20040;-71
2022/08/04 03:21:17;;;;;;;;;;;;;;;;;;8414263;28;20498;-72
2022/08/04 03:25:36;;;;;;;2.10;1.70;;;;;;;;;;8414570;27;19912;-72
2022/08/04 03:29:59;;;;;;;1.58;1.48;;;;;;;;;;8411778;28;20038;-72
2022/08/04 03:34:05;;;;;;;3.13;1.60;;;;;;;;;;8411260;28;20131;-72
2022/08/04 03:38:20;;;;;;;3.67;1.60;;;;;;;;;;8414353;28;20024;-72
2022/08/04 03:42:38;;;;;;;1.70;1.60;;;;;;;;;;8409784;28;20027;-72
2022/08/04 03:46:54;;;;;;;1.60;1.40;;;;;;;;;;8411981;27;20047;-72
2022/08/04 03:55:51;;;;;;;2.10;1.58;;;;;;;;;;8412271;28;20722;-72
2022/08/04 04:00:03;;;;;;;3.53;1.50;;;;;;;;;;8410861;28;20482;-72
2022/08/04 04:04:22;;;;;;;2.75;1.42;;;;;;;;;;8411316;28;20036;-72
2022/08/04 04:08:42;;;;;;;1.88;1.40;;;;;;;;;;8410734;28;20118;-72
2022/08/04 04:12:42;;;;;;;2.08;1.35;;;;;;;;;;8395315;28;20295;-72
2022/08/04 04:17:02;;;;;;;2.28;1.40;;;;;;;;;;8413085;28;20061;-72
2022/08/04 04:21:23;;;;;;;1.90;1.63;;;;;;;;;;8407756;28;20070;-72
2022/08/04 04:25:34;;;;;;;2.80;1.60;;;;;;;;;;8412835;28;20477;-72
2022/08/04 04:29:46;;;;;;;3.42;1.70;;;;;;;;;;8411182;28;20023;-72
2022/08/04 04:33:52;;;;;;;1.92;1.55;;;;;;;;;;8407918;28;20718;-72
2022/08/04 04:38:18;;;;;;;2.55;1.70;;;;;;;;;;8413401;28;20263;-72
2022/08/04 04:42:21;;;;;;;1.67;1.58;;;;;;;;;;8411760;28;20121;-72
2022/08/04 04:46:36;;;;;;;2.25;1.30;;;;;;;;;;8409452;28;20126;-72
2022/08/04 04:51:02;;;;;;;1.90;1.60;;;;;;;;;;8410894;28;20035;-72
2022/08/04 04:55:18;;;;;;;3.05;1.80;;;;;;;;;;8403347;28;20602;-72
2022/08/04 04:59:20;;;;;;;3.67;1.90;;;;;;;;;;8410013;28;20387;-72
2022/08/04 05:03:28;;;;;;;4.07;2.37;;;;;;;;;;8417862;28;20043;-72
2022/08/04 05:07:32;;;;;;;2.55;1.67;;;;;;;;;;8396157;28;20023;-72
2022/08/04 05:11:51;;;;;;;2.50;1.65;;;;;;;;;;8416525;28;20019;-72
2022/08/04 05:15:53;;;;;;;2.50;1.50;;;;;;;;;;8419603;27;20476;-72
2022/08/04 05:20:07;;;;;;;3.80;1.50;;;;;;;;;;8416898;28;20223;-72
2022/08/04 05:24:09;;;;;;;3.00;1.80;;;;;;;;;;8415707;28;20023;-72
2022/08/04 05:28:14;;;;;;;6.25;1.85;;;;;;;;;;8418766;28;20975;-72
2022/08/04 05:32:14;;;;;;;4.20;1.70;;;;;;;;;;8415492;28;20035;-72
2022/08/04 05:36:16;;;;;;;4.60;1.98;;;;;;;;;;8413770;28;20669;-72
2022/08/04 05:40:17;;;;;;;6.45;1.98;;;;;;;;;;8416904;27;20499;-72
2022/08/04 05:44:19;;;;;;;2.67;1.80;;;;;;;;;;8416163;28;20042;-72
2022/08/04 05:48:19;;;;;;;2.40;1.85;;;;;;;;;;8413500;28;20746;-72
2022/08/04 05:52:20;;;;;;;2.53;1.80;;;;;;;;;;8417192;27;20046;-72
2022/08/04 05:56:21;;;;;;;4.97;2.13;;;;;;;;;;8413857;28;20256;-72
2022/08/04 06:00:21;;;;;;;4.55;1.80;;;;;;;;;;8412947;28;20023;-72
2022/08/04 06:04:23;;;;;;;2.22;1.90;;;;;;;;;;8412035;28;20122;-72
2022/08/04 06:08:24;;;;;;;4.40;2.05;;;;;;;;;;8418212;27;20023;-72
2022/08/04 06:12:25;;;;;;;3.37;1.80;;;;;;;;;;8412961;28;20069;-72
2022/08/04 06:16:29;;;;;;;4.93;1.75;;;;;;;;;;8415338;28;20279;-72
2022/08/04 06:20:32;;;;;;;2.67;1.90;;;;;;;;;;8411166;28;20135;-72
2022/08/04 06:24:34;;;;;;;2.88;1.95;;;;;;;;;;8414061;28;20494;-72
2022/08/04 06:28:35;;;;;;;2.97;1.73;;;;;;;;;;8415810;28;20042;-72
2022/08/04 06:32:37;;;;;;;4.18;1.80;;;;;;;;;;8412189;28;20163;-72
2022/08/04 06:36:39;;;;;;;;;;;;;;;;;;8412770;27;20019;-73
2022/08/04 06:40:40;;;;;;;3.87;2.03;;;;;;;;;;8410871;28;19943;-72
2022/08/04 06:44:41;;;;;;;2.37;1.60;;;;;;;;;;8413320;28;20039;-73
2022/08/04 06:48:42;;;;;;;4.63;2.00;;;;;;;;;;8414071;28;20028;-72
2022/08/04 06:52:43;;;;;;;3.30;2.00;;;;;;;;;;8413946;28;20392;-72
2022/08/04 06:56:44;;;;;;;2.45;1.75;;;;;;;;;;8412999;28;20031;-72
2022/08/04 07:00:45;;;;;;;3.40;1.67;;;;;;;;;;8413706;28;20035;-73
2022/08/04 07:04:47;;;;;;;6.47;1.90;;;;;;;;;;8393660;27;20130;-72
2022/08/04 07:08:47;;;;;;;12.83;1.80;;;;;;;;;;8413648;28;20280;-73
2022/08/04 07:12:48;;;;;;;1.70;1.60;;;;;;;;;;8410041;28;20493;-73
2022/08/04 07:16:49;;;;;;;3.83;2.13;;;;;;;;;;8408587;27;20088;-72
2022/08/04 07:20:49;;;;;;;4.13;1.80;;;;;;;;;;8408940;28;20083;-72
2022/08/04 07:24:53;;;;;;;3.00;1.77;;;;;;;;;;8409862;28;20066;-72
2022/08/04 07:28:53;;;;;;;4.32;1.70;;;;;;;;;;8410283;27;20035;-73
2022/08/04 07:32:53;;;;;;;5.13;1.60;;;;;;;;;;8411717;28;20044;-73
2022/08/04 07:36:54;;;;;;;3.45;1.77;;;;;;;;;;8411289;28;20027;-73
2022/08/04 07:40:55;;;;;;;3.55;1.65;;;;;;;;;;8409569;28;21014;-72
2022/08/04 07:44:55;;;;;;;5.53;1.90;;;;;;;;;;8410952;28;20431;-72
2022/08/04 07:48:57;;;;;;;6.73;2.07;;;;;;;;;;8410190;28;20036;-72
2022/08/04 07:52:57;;;;;;;;;;;;;;;;;;8411471;28;20459;-72
2022/08/04 07:56:57;;;;;;;20.65;2.35;;;;;;;;;;8410869;28;19982;-72
2022/08/04 08:00:57;;;;;;;35.78;2.70;;;;;;;;;;8407345;28;20050;-73
2022/08/04 08:04:57;;;;;;;36.42;2.60;;;;;;;;;;8409179;28;20121;-73
2022/08/04 08:08:59;;;;;;;23.90;2.50;;;;;;;;;;8410658;28;20078;-73
2022/08/04 08:13:00;;;;;;;6.13;2.13;;;;;;;;;;8411328;28;20115;-73
2022/08/04 08:17:01;;;;;;;12.90;2.40;;;;;;;;;;8412799;28;20036;-72
2022/08/04 08:21:01;;;;;;;17.08;2.15;;;;;;;;;;8408501;28;20034;-72
2022/08/04 08:25:01;;;;;;;9.60;2.10;;;;;;;;;;8407636;28;20138;-73
2022/08/04 08:29:02;;;;;;;9.60;1.97;;;;;;;;;;8409936;28;20036;-72
2022/08/04 08:33:08;;;;;;;9.43;2.10;;;;;;;;;;8406974;28;20036;-72
2022/08/04 08:37:12;;;;;;;16.63;2.35;;;;;;;;;;8414656;28;20023;-73
2022/08/04 08:41:20;;;;;;;7.93;1.90;;;;;;;;;;8416067;28;20028;-72
2022/08/04 08:45:35;;;;;;;6.38;2.20;;;;;;;;;;8415014;28;20107;-73
2022/08/04 08:49:59;;;;;;;9.85;2.00;;;;;;;;;;8415348;28;20047;-72
2022/08/04 08:54:18;;;;;;;6.97;2.15;;;;;;;;;;8414716;27;20387;-72
2022/08/04 08:58:41;;;;;;;10.95;1.90;;;;;;;;;;8414167;28;20027;-72
2022/08/04 09:02:48;;;;;;;8.95;1.83;;;;;;;;;;8415374;28;20043;-72
2022/08/04 09:07:08;;;;;;;9.73;2.10;;;;;;;;;;8404285;27;20074;-72
2022/08/04 09:11:13;;;;;;;23.13;2.40;;;;;;;;;;8412587;28;20036;-72
2022/08/04 09:15:15;;;;;;;9.70;1.80;;;;;;;;;;8416959;28;20251;-72
2022/08/04 09:19:27;;;;;;;8.00;2.00;;;;;;;;;;8414793;28;20140;-72
2022/08/04 09:23:39;;;;;;;6.72;1.95;;;;;;;;;;8414967;28;20028;-72
2022/08/04 09:27:50;;;;;;;16.25;2.00;;;;;;;;;;8411994;28;20020;-72
2022/08/04 09:32:01;;;;;;;12.30;1.70;;;;;;;;;;8411303;28;20158;-72
2022/08/04 09:36:03;;;;;;;5.78;1.83;;;;;;;;;;8415068;28;20034;-73
2022/08/04 09:40:06;;;;;;;12.00;1.90;;;;;;;;;;8412285;28;20379;-72
2022/08/04 09:44:30;;;;;;;12.25;1.90;;;;;;;;;;8414141;28;20023;-72
2022/08/04 09:48:34;;;;;;;6.50;1.67;;;;;;;;;;8411155;28;20032;-72
2022/08/04 09:52:43;;;;;;;7.40;1.63;;;;;;;;;;8413428;27;20030;-72
2022/08/04 09:56:46;;;;;;;6.28;1.80;;;;;;;;;;8401125;28;20095;-72
2022/08/04 10:00:52;;;;;;;6.55;1.98;;;;;;;;;;8411262;28;20038;-72
2022/08/04 10:04:54;;;;;;;9.45;1.85;;;;;;;;;;8409960;27;20042;-72
2022/08/04 10:09:06;;;;;;;4.68;1.63;;;;;;;;;;8412004;28;20576;-72
2022/08/04 10:13:25;;;;;;;2.58;1.75;;;;;;;;;;8410880;28;20016;-72
2022/08/04 10:17:43;;;;;;;3.72;1.50;;;;;;;;;;8411316;27;20116;-72
2022/08/04 10:21:49;;;;;;;4.60;1.55;;;;;;;;;;8409937;27;20732;-73
2022/08/04 10:26:04;;;;;;;6.32;1.80;;;;;;;;;;8413772;28;20019;-72
2022/08/04 10:30:10;;;;;;;3.90;1.48;;;;;;;;;;8411371;28;20046;-72
2022/08/04 10:34:12;;;;;;;2.83;1.70;;;;;;;;;;8411994;28;20488;-72
2022/08/04 10:38:19;;;;;;;3.65;1.50;;;;;;;;;;8384867;28;20024;-73
2022/08/04 10:42:26;;;;;;;5.90;1.65;;;;;;;;;;8410170;28;20063;-72
2022/08/04 10:46:30;;;;;;;3.35;1.67;;;;;;;;;;8409958;28;20377;-72
2022/08/04 10:50:33;;;;;;;3.92;1.45;;;;;;;;;;8413334;28;20114;-72
2022/08/04 10:54:52;;;;;;;2.60;1.30;;;;;;;;;;8411205;28;20055;-72
2022/08/04 10:58:57;;;;;;;2.70;1.25;;;;;;;;;;8407673;28;20027;-73
2022/08/04 11:03:00;;;;;;;5.80;1.33;;;;;;;;;;8409737;28;21001;-73
2022/08/04 11:07:01;;;;;;;2.55;1.20;;;;;;;;;;8413111;28;20026;-73
2022/08/04 11:11:04;;;;;;;2.38;1.10;;;;;;;;;;8409030;28;20012;-73
2022/08/04 11:15:07;;;;;;;2.65;1.10;;;;;;;;;;8409638;28;20016;-73
2022/08/04 11:19:11;;;;;;;2.22;1.10;;;;;;;;;;8411145;28;20035;-72
2022/08/04 11:23:12;;;;;;;3.78;1.17;;;;;;;;;;8412067;27;20463;-73
2022/08/04 11:27:34;;;;;;;1.83;1.00;;;;;;;;;;8406126;28;20458;-72
2022/08/04 11:31:38;;;;;;;2.05;0.90;;;;;;;;;;8407154;28;20122;-72
2022/08/04 11:35:45;;;;;;;1.67;1.00;;;;;;;;;;8410787;28;20030;-73
2022/08/04 11:39:53;;;;;;;2.55;0.95;;;;;;;;;;8410840;28;20061;-73
2022/08/04 11:43:55;;;;;;;4.03;0.98;;;;;;;;;;8407158;28;21009;-73
2022/08/04 11:48:08;;;;;;;2.10;1.00;;;;;;;;;;8408330;28;20116;-72
2022/08/04 11:52:11;;;;;;;2.13;1.10;;;;;;;;;;8408646;28;20079;-72
2022/08/04 11:56:13;;;;;;;4.53;1.10;;;;;;;;;;8408388;28;20025;-72
2022/08/04 12:00:14;;;;;;;4.18;1.00;;;;;;;;;;8405426;28;20049;-73
2022/08/04 12:04:34;;;;;;;5.85;1.27;;;;;;;;;;8410936;28;20031;-72
2022/08/04 12:08:44;;;;;;;1.10;1.00;;;;;;;;;;8407649;28;20086;-72
2022/08/04 12:13:03;;;;;;;0.93;0.90;;;;;;;;;;8409555;28;20722;-73
2022/08/04 12:17:04;;;;;;;2.55;1.02;;;;;;;;;;8406243;28;20113;-72
2022/08/04 12:21:06;;;;;;;1.23;0.95;;;;;;;;;;8406496;28;20393;-72
2022/08/04 12:25:12;;;;;;;4.35;0.90;;;;;;;;;;8407508;28;20012;-72
2022/08/04 12:29:14;;;;;;;2.35;1.00;;;;;;;;;;8409327;28;20027;-73
2022/08/04 12:33:25;;;;;;;3.90;0.98;;;;;;;;;;8406504;28;20117;-73
2022/08/04 12:37:30;;;;;;;5.45;1.00;;;;;;;;;;8405834;28;20441;-72
2022/08/04 12:41:54;;;;;;;1.90;1.10;;;;;;;;;;8387159;28;20027;-72
2022/08/04 12:45:56;;;;;;;1.67;0.98;;;;;;;;;;8370462;28;20080;-72
2022/08/04 12:49:59;;;;;;;1.98;0.90;;;;;;;;;;8406127;28;20030;-72
2022/08/04 12:54:00;;;;;;;1.27;0.90;;;;;;;;;;8408464;28;20027;-72
2022/08/04 12:58:01;;;;;;;2.92;0.95;;;;;;;;;;8406451;28;20138;-72
2022/08/04 13:02:02;;;;;;;2.42;1.00;;;;;;;;;;8409621;28;20036;-72
2022/08/04 13:06:03;;;;;;;1.73;1.00;;;;;;;;;;8410244;28;20078;-72
2022/08/04 13:10:13;;;;;;;1.60;1.00;;;;;;;;;;8406959;28;20142;-73
2022/08/04 13:14:13;;;;;;;1.00;1.00;;;;;;;;;;8407254;28;20038;-72
2022/08/04 13:18:14;;;;;;;2.60;0.90;;;;;;;;;;8405966;28;20499;-73
2022/08/04 13:22:22;;;;;;;0.90;0.90;;;;;;;;;;8408955;28;20050;-72
2022/08/04 13:26:24;;;;;;;2.17;1.10;;;;;;;;;;8413487;28;20029;-72
2022/08/04 13:30:26;;;;;;;3.25;1.15;;;;;;;;;;8409403;28;20036;-72
2022/08/04 13:34:27;;;;;;;1.77;1.00;;;;;;;;;;8415648;28;20231;-73
2022/08/04 13:38:28;;;;;;;2.25;0.93;;;;;;;;;;8414319;28;20019;-72
2022/08/04 13:42:28;;;;;;;2.53;1.00;;;;;;;;;;8411431;28;20035;-72
2022/08/04 13:46:31;;;;;;;1.98;0.93;;;;;;;;;;8411631;28;20100;-72
2022/08/04 13:50:32;;;;;;;3.28;1.20;;;;;;;;;;8411351;28;20049;-72
2022/08/04 13:54:36;;;;;;;1.65;1.05;;;;;;;;;;8412229;28;20180;-73
2022/08/04 13:58:44;;;;;;;1.27;1.00;;;;;;;;;;8410053;28;20954;-72
2022/08/04 14:03:02;;;;;;;1.15;1.05;;;;;;;;;;8410772;28;20046;-72
2022/08/04 14:07:05;;;;;;;1.15;1.00;;;;;;;;;;8408675;28;20074;-72
2022/08/04 14:11:05;;;;;;;1.85;0.90;;;;;;;;;;8413157;28;20008;-72
2022/08/04 14:15:06;;;;;;;1.20;1.10;;;;;;;;;;8413278;27;20330;-73
2022/08/04 14:19:06;;;;;;;1.92;1.00;;;;;;;;;;8411037;28;20102;-72
2022/08/04 14:23:06;;;;;;;1.67;1.00;;;;;;;;;;8409219;28;20031;-72
2022/08/04 14:27:06;;;;;;;3.15;1.00;;;;;;;;;;8411941;28;20069;-72
2022/08/04 14:31:11;;;;;;;1.25;1.10;;;;;;;;;;8409296;27;20771;-72
2022/08/04 14:35:11;;;;;;;1.40;1.30;;;;;;;;;;8411882;28;20083;-72
2022/08/04 14:39:11;;;;;;;1.73;1.20;;;;;;;;;;8415092;28;20139;-72
2022/08/04 14:43:15;;;;;;;4.05;1.10;;;;;;;;;;8409307;28;20469;-72
2022/08/04 14:47:15;;;;;;;1.33;1.08;;;;;;;;;;8410142;27;20254;-72
2022/08/04 14:51:16;;;;;;;0.98;0.98;;;;;;;;;;8411077;28;20029;-72
2022/08/04 14:55:20;;;;;;;1.17;1.10;;;;;;;;;;8414307;27;20028;-73
2022/08/04 14:59:21;;;;;;;2.25;1.20;;;;;;;;;;8412336;28;20360;-73
2022/08/04 15:03:21;;;;;;;3.83;1.10;;;;;;;;;;8407924;28;20162;-72
2022/08/04 15:07:21;;;;;;;1.55;1.10;;;;;;;;;;8411401;28;20256;-72
2022/08/04 15:11:22;;;;;;;4.50;1.17;;;;;;;;;;8408755;28;20562;-72
2022/08/04 15:15:23;;;;;;;3.25;1.10;;;;;;;;;;8411788;28;20047;-72
2022/08/04 15:19:24;;;;;;;1.10;1.00;;;;;;;;;;8408341;28;20050;-72
2022/08/04 15:23:24;;;;;;;1.42;1.13;;;;;;;;;;8407429;28;20433;-72
2022/08/04 15:27:26;;;;;;;3.42;1.08;;;;;;;;;;8409526;28;20023;-73
2022/08/04 15:31:27;;;;;;;2.60;1.13;;;;;;;;;;8405826;28;20043;-72
2022/08/04 15:35:32;;;;;;;;;;;;;;;;;;8409488;28;20027;-72
2022/08/04 15:39:32;;;;;;;3.42;1.10;;;;;;;;;;8412041;28;19908;-73
2022/08/04 15:43:44;;;;;;;1.02;1.02;;;;;;;;;;8407109;27;20956;-72
2022/08/04 15:48:03;;;;;;;1.20;1.00;;;;;;;;;;8409030;28;20975;-73
2022/08/04 15:52:14;;;;;;;1.48;1.13;;;;;;;;;;8410062;28;20426;-72
2022/08/04 15:56:24;;;;;;;1.83;1.10;;;;;;;;;;8411093;28;20979;-73
2022/08/04 16:00:24;;;;;;;4.68;1.10;;;;;;;;;;8406774;28;20122;-73
2022/08/04 16:04:24;;;;;;;18.73;1.70;;;;;;;;;;8408289;28;20154;-72
2022/08/04 16:08:25;;;;;;;4.10;1.30;;;;;;;;;;8407811;28;20027;-72
2022/08/04 16:12:51;;;;;;;2.77;1.10;;;;;;;;;;8408289;28;20220;-72
2022/08/04 16:16:51;;;;;;;3.03;1.27;;;;;;;;;;8408259;28;20130;-72
2022/08/04 16:20:55;;;;;;;1.00;1.00;;;;;;;;;;8408192;28;20489;-72
2022/08/04 16:24:56;;;;;;;3.97;1.27;;;;;;;;;;8409297;28;20016;-73
2022/08/04 16:28:56;;;;;;;1.33;1.20;;;;;;;;;;8388594;28;20024;-72
2022/08/04 16:32:57;;;;;;;1.20;1.20;;;;;;;;;;8407291;28;21019;-72
2022/08/04 16:36:58;;;;;;;1.95;1.30;;;;;;;;;;8409544;28;20480;-72
2022/08/04 16:40:59;;;;;;;3.63;1.25;;;;;;;;;;8387422;28;20062;-72
2022/08/04 16:45:06;;;;;;;1.30;1.20;;;;;;;;;;8406849;28;20428;-73
2022/08/04 16:49:06;;;;;;;1.27;1.17;;;;;;;;;;8405068;28;20042;-71
2022/08/04 16:53:09;;;;;;;2.38;1.30;;;;;;;;;;8409266;28;20405;-72
2022/08/04 16:57:09;;;;;;;2.50;1.10;;;;;;;;;;8411040;28;20027;-72
2022/08/04 17:01:11;;;;;;;2.47;1.10;;;;;;;;;;8414645;28;20097;-72
2022/08/04 17:05:22;;;;;;;1.17;1.10;;;;;;;;;;8414868;28;20166;-71
2022/08/04 17:09:22;;;;;;;1.13;1.00;;;;;;;;;;8415085;28;20123;-72
2022/08/04 17:13:27;;;;;;;3.00;1.00;;;;;;;;;;8392616;28;20032;-72
2022/08/04 17:17:27;;;;;;;3.72;1.30;;;;;;;;;;8414763;28;20674;-72
2022/08/04 17:21:28;;;;;;;3.10;1.10;;;;;;;;;;8412181;28;20134;-72
2022/08/04 17:25:28;;;;;;;1.60;1.00;;;;;;;;;;8414925;28;20015;-71
2022/08/04 17:29:28;;;;;;;3.05;1.00;;;;;;;;;;8394973;28;20134;-72
2022/08/04 17:33:30;;;;;;;3.28;1.00;;;;;;;;;;8413299;28;20315;-72
2022/08/04 17:37:30;;;;;;;1.00;1.00;;;;;;;;;;8415874;28;20031;-72
2022/08/04 17:41:30;;;;;;;4.65;0.98;;;;;;;;;;8413767;28;20047;-72
2022/08/04 17:45:31;;;;;;;1.20;1.10;;;;;;;;;;8412006;28;20054;-72
2022/08/04 17:49:31;;;;;;;1.57;1.00;;;;;;;;;;8414285;28;20059;-71
2022/08/04 17:53:33;;;;;;;1.75;0.90;;;;;;;;;;8410350;28;21011;-71
2022/08/04 17:57:33;;;;;;;1.15;1.00;;;;;;;;;;8410476;28;20116;-72
2022/08/04 18:01:53;;;;;;;1.23;0.87;;;;;;;;;;8411344;28;20092;-72
2022/08/04 18:05:54;;;;;;;1.10;1.00;;;;;;;;;;8410925;28;20100;-71
2022/08/04 18:10:00;;;;;;;1.80;1.03;;;;;;;;;;8414649;28;20024;-72
2022/08/04 18:14:00;;;;;;;2.90;1.10;;;;;;;;;;8411830;28;20058;-72
2022/08/04 18:18:16;;;;;;;1.42;1.05;;;;;;;;;;8410644;28;20032;-71
2022/08/04 18:22:17;;;;;;;1.00;1.00;;;;;;;;;;8413402;28;20038;-72
2022/08/04 18:26:17;;;;;;;3.20;1.00;;;;;;;;;;8414172;28;20457;-72
2022/08/04 18:30:17;;;;;;;1.33;1.00;;;;;;;;;;8413228;27;20035;-72
2022/08/04 18:34:17;;;;;;;1.67;1.10;;;;;;;;;;8409723;28;20443;-71
2022/08/04 18:38:18;;;;;;;1.67;1.30;;;;;;;;;;8409828;28;20020;-72
2022/08/04 18:42:18;;;;;;;2.50;1.17;;;;;;;;;;8411587;28;20571;-71
2022/08/04 18:46:18;;;;;;;2.55;1.00;;;;;;;;;;8413121;27;20467;-72
2022/08/04 18:50:18;;;;;;;4.00;1.10;;;;;;;;;;8411271;28;20026;-71
2022/08/04 18:54:19;;;;;;;1.30;1.00;;;;;;;;;;8413120;28;20019;-71
2022/08/04 18:58:19;;;;;;;4.43;1.10;;;;;;;;;;8414133;28;20324;-71
2022/08/04 19:02:19;;;;;;;2.80;1.10;;;;;;;;;;8411093;28;20039;-71
2022/08/04 19:06:20;;;;;;;1.77;1.00;;;;;;;;;;8413887;28;20100;-71
2022/08/04 19:10:20;;;;;;;1.70;1.10;;;;;;;;;;8410537;28;20028;-72
2022/08/04 19:14:20;;;;;;;1.85;1.23;;;;;;;;;;8409375;28;20032;-71
2022/08/04 19:18:20;;;;;;;2.83;1.20;;;;;;;;;;8408112;28;20489;-72
2022/08/04 19:22:20;;;;;;;5.32;1.20;;;;;;;;;;8410878;28;20050;-72
2022/08/04 19:26:21;;;;;;;1.15;1.08;;;;;;;;;;8411634;28;20023;-72
2022/08/04 19:30:22;;;;;;;2.88;1.10;;;;;;;;;;8410390;28;20027;-72
2022/08/04 19:34:22;;;;;;;4.13;1.20;;;;;;;;;;8410864;28;20051;-71
2022/08/04 19:38:22;;;;;;;1.73;1.13;;;;;;;;;;8409739;28;20385;-71
2022/08/04 19:42:22;;;;;;;1.67;1.20;;;;;;;;;;8412103;28;20024;-71
2022/08/04 19:46:23;;;;;;;1.60;1.10;;;;;;;;;;8409280;28;20028;-72
2022/08/04 19:50:24;;;;;;;1.83;1.30;;;;;;;;;;8407824;27;20016;-71
2022/08/04 19:54:24;;;;;;;1.00;0.93;;;;;;;;;;8409800;27;20027;-71
2022/08/04 19:58:25;;;;;;;2.97;1.23;;;;;;;;;;8407452;28;20503;-71
2022/08/04 20:02:25;;;;;;;1.80;1.20;;;;;;;;;;8409305;28;20038;-72
2022/08/04 20:06:25;;;;;;;1.35;1.13;;;;;;;;;;8408778;28;20076;-71
2022/08/04 20:10:25;;;;;;;2.10;1.27;;;;;;;;;;8408272;28;20019;-71
2022/08/04 20:14:27;;;;;;;4.28;1.20;;;;;;;;;;8407162;28;20543;-71
2022/08/04 20:18:28;;;;;;;1.95;1.25;;;;;;;;;;8406102;28;20043;-71
2022/08/04 20:22:28;;;;;;;4.63;1.27;;;;;;;;;;8410517;28;20112;-71
2022/08/04 20:26:28;;;;;;;1.63;1.30;;;;;;;;;;8408864;28;20735;-71
2022/08/04 20:30:29;;;;;;;4.90;1.30;;;;;;;;;;8405626;28;20567;-71
2022/08/04 20:34:29;;;;;;;1.85;1.40;;;;;;;;;;8407630;28;20028;-71
2022/08/04 20:38:29;;;;;;;2.03;1.30;;;;;;;;;;8406681;28;20027;-71
2022/08/04 20:42:30;;;;;;;5.70;1.52;;;;;;;;;;8409564;28;20476;-71
2022/08/04 20:46:31;;;;;;;3.63;1.40;;;;;;;;;;8408352;28;20921;-71
2022/08/04 20:50:31;;;;;;;2.45;1.48;;;;;;;;;;8405395;28;20132;-71
2022/08/04 20:54:31;;;;;;;8.00;1.58;;;;;;;;;;8407901;28;20122;-71
2022/08/04 20:58:31;;;;;;;2.97;1.53;;;;;;;;;;8406423;28;20073;-71
2022/08/04 21:02:32;;;;;;;4.63;1.90;;;;;;;;;;8404403;28;20298;-71
2022/08/04 21:06:32;;;;;;;2.70;1.40;;;;;;;;;;8406726;28;20072;-72
2022/08/04 21:10:32;;;;;;;3.33;1.40;;;;;;;;;;8407840;28;20050;-71
2022/08/04 21:14:33;;;;;;;3.77;1.70;;;;;;;;;;8410205;28;20476;-71
2022/08/04 21:18:33;;;;;;;10.10;1.70;;;;;;;;;;8406359;28;20105;-71
2022/08/04 21:22:33;;;;;;;2.28;1.58;;;;;;;;;;8408679;28;20552;-71
2022/08/04 21:26:33;;;;;;;3.40;1.50;;;;;;;;;;8404024;28;20022;-71
2022/08/04 21:30:34;;;;;;;6.60;1.40;;;;;;;;;;8405723;28;20117;-71
2022/08/04 21:34:34;;;;;;;4.50;1.40;;;;;;;;;;8406219;28;20036;-72
2022/08/04 21:38:34;;;;;;;5.10;1.77;;;;;;;;;;8386474;28;20491;-72
2022/08/04 21:42:34;;;;;;;3.97;1.70;;;;;;;;;;8407896;28;20036;-71
2022/08/04 21:46:35;;;;;;;6.03;1.80;;;;;;;;;;8392303;27;20038;-71
2022/08/04 21:50:35;;;;;;;7.33;1.60;;;;;;;;;;8411623;28;20024;-71
2022/08/04 21:54:35;;;;;;;5.70;1.63;;;;;;;;;;8411762;27;20163;-70
2022/08/04 21:58:36;;;;;;;4.50;1.70;;;;;;;;;;8413871;28;20393;-71
2022/08/04 22:02:36;;;;;;;2.95;1.50;;;;;;;;;;8412887;28;20069;-71
2022/08/04 22:06:36;;;;;;;4.40;2.10;;;;;;;;;;8391031;28;20740;-71
2022/08/04 22:10:37;;;;;;;15.85;1.88;;;;;;;;;;8412995;28;20025;-72
2022/08/04 22:14:38;;;;;;;5.50;1.70;;;;;;;;;;8415326;28;20467;-71
2022/08/04 22:18:38;;;;;;;3.63;1.60;;;;;;;;;;8410394;27;20035;-71
2022/08/04 22:22:38;;;;;;;7.73;1.80;;;;;;;;;;8410615;28;20074;-71
2022/08/04 22:26:38;;;;;;;3.05;1.70;;;;;;;;;;8412356;28;20019;-71
2022/08/04 22:30:39;;;;;;;4.60;2.00;;;;;;;;;;8411488;28;20120;-71
2022/08/04 22:34:39;;;;;;;4.95;1.73;;;;;;;;;;8412991;28;20035;-71
2022/08/04 22:38:39;;;;;;;4.53;1.83;;;;;;;;;;8394199;28;20099;-71
2022/08/04 22:42:39;;;;;;;4.13;1.92;;;;;;;;;;8410503;28;20119;-71
2022/08/04 22:46:40;;;;;;;3.30;1.65;;;;;;;;;;8413328;28;20043;-71
2022/08/04 22:50:40;;;;;;;4.55;2.03;;;;;;;;;;8412960;28;20020;-71
2022/08/04 22:54:40;;;;;;;6.30;1.60;;;;;;;;;;8414389;28;20727;-71
2022/08/04 22:58:41;;;;;;;10.40;1.90;;;;;;;;;;8412275;27;20026;-71
2022/08/04 23:02:41;;;;;;;4.30;1.63;;;;;;;;;;8413298;28;20104;-71
2022/08/04 23:06:41;;;;;;;5.55;1.80;;;;;;;;;;8413115;28;20024;-71
2022/08/04 23:10:42;;;;;;;4.53;1.80;;;;;;;;;;8413298;27;20468;-71
2022/08/04 23:14:44;;;;;;;4.57;1.70;;;;;;;;;;8411645;28;20023;-71
2022/08/04 23:18:44;;;;;;;6.57;1.75;;;;;;;;;;8412666;28;20503;-71
2022/08/04 23:22:44;;;;;;;8.82;1.85;;;;;;;;;;8409881;28;20050;-71
2022/08/04 23:26:45;;;;;;;5.60;1.83;;;;;;;;;;8411635;28;20028;-71
2022/08/04 23:30:45;;;;;;;7.10;2.13;;;;;;;;;;8408660;27;20108;-71
2022/08/04 23:34:45;;;;;;;11.35;2.33;;;;;;;;;;8406999;28;20036;-70
2022/08/04 23:38:46;;;;;;;4.80;2.08;;;;;;;;;;8412199;28;20026;-71
2022/08/04 23:42:46;;;;;;;6.63;2.30;;;;;;;;;;8409787;28;21896;-71
2022/08/04 23:46:46;;;;;;;7.43;2.80;;;;;;;;;;8408694;28;20039;-71
2022/08/04 23:50:46;;;;;;;7.90;2.88;;;;;;;;;;8411101;28;20631;-71
2022/08/04 23:54:48;;;;;;;5.85;2.47;;;;;;;;;;8411048;28;20857;-71
2022/08/04 23:58:49;;;;;;;8.07;2.38;;;;;;;;;;8411972;27;20112;-71
